Lum, Michigan
Current Conditions -  °F | °C
As of 6:54 AM on Friday 19 Dec 2014 (Local Time) from KD95 Reporting Station
Overcast Overcast  
Wind Chill: -4°   Ceiling: 1800
Heat Index: -4°   Visibility: 10mi
Dew Point: -6°   Wind: 3mph
Humidity: 84%   Direction: 320°NW
Pressure: 30.24"   Gusts: NA
Location:  43.0581°N, 83.167°W
Report Text: KD95 191154Z AUTO 32003KT 10SM OVC018 M04/M06 A3024 RMK AO2 T10381061
Loading
Personal Weather Stations






























Interactive Weather Map New forecast layout! Learn more

10-Day Weather Forecast

Advertisements
Track Severe Weather on mobile